sensor_id;sensor_type;location;lat;lon;timestamp;temperature;humidity
52963;DHT22;38827;53.024;6.596;2023-04-03T00:00:05;3.00;60.10
52963;DHT22;38827;53.024;6.596;2023-04-03T00:02:32;3.00;60.10
52963;DHT22;38827;53.024;6.596;2023-04-03T00:04:58;2.90;60.90
52963;DHT22;38827;53.024;6.596;2023-04-03T00:07:23;2.90;60.10
52963;DHT22;38827;53.024;6.596;2023-04-03T00:09:55;2.80;60.10
52963;DHT22;38827;53.024;6.596;2023-04-03T00:12:20;2.80;60.10
52963;DHT22;38827;53.024;6.596;2023-04-03T00:14:46;2.80;60.20
52963;DHT22;38827;53.024;6.596;2023-04-03T00:17:12;2.80;60.20
52963;DHT22;38827;53.024;6.596;2023-04-03T00:19:37;2.80;60.20
52963;DHT22;38827;53.024;6.596;2023-04-03T00:22:03;2.70;60.30
52963;DHT22;38827;53.024;6.596;2023-04-03T00:24:29;2.70;60.30
52963;DHT22;38827;53.024;6.596;2023-04-03T00:27:06;2.60;60.40
52963;DHT22;38827;53.024;6.596;2023-04-03T00:29:42;2.60;60.40
52963;DHT22;38827;53.024;6.596;2023-04-03T00:32:11;2.60;60.60
52963;DHT22;38827;53.024;6.596;2023-04-03T00:34:48;2.50;60.60
52963;DHT22;38827;53.024;6.596;2023-04-03T00:37:33;2.50;60.80
52963;DHT22;38827;53.024;6.596;2023-04-03T00:40:08;2.50;60.70
52963;DHT22;38827;53.024;6.596;2023-04-03T00:42:50;2.50;60.80
52963;DHT22;38827;53.024;6.596;2023-04-03T00:45:37;2.50;60.90
52963;DHT22;38827;53.024;6.596;2023-04-03T00:48:07;2.40;61.10
52963;DHT22;38827;53.024;6.596;2023-04-03T00:50:45;2.40;61.10
52963;DHT22;38827;53.024;6.596;2023-04-03T00:53:22;2.40;61.30
52963;DHT22;38827;53.024;6.596;2023-04-03T00:55:51;2.30;61.30
52963;DHT22;38827;53.024;6.596;2023-04-03T00:58:19;2.30;61.50
52963;DHT22;38827;53.024;6.596;2023-04-03T01:00:50;2.30;61.60
52963;DHT22;38827;53.024;6.596;2023-04-03T01:03:21;2.30;61.60
52963;DHT22;38827;53.024;6.596;2023-04-03T01:05:47;2.20;61.90
52963;DHT22;38827;53.024;6.596;2023-04-03T01:08:13;2.20;62.00
52963;DHT22;38827;53.024;6.596;2023-04-03T01:10:38;2.20;62.20
52963;DHT22;38827;53.024;6.596;2023-04-03T01:13:27;2.10;62.40
52963;DHT22;38827;53.024;6.596;2023-04-03T01:15:59;2.10;62.50
52963;DHT22;38827;53.024;6.596;2023-04-03T01:18:26;2.10;62.50
52963;DHT22;38827;53.024;6.596;2023-04-03T01:23:36;2.00;62.90
52963;DHT22;38827;53.024;6.596;2023-04-03T01:26:06;2.00;63.10
52963;DHT22;38827;53.024;6.596;2023-04-03T01:28:34;2.00;63.10
52963;DHT22;38827;53.024;6.596;2023-04-03T01:31:33;1.90;63.20
52963;DHT22;38827;53.024;6.596;2023-04-03T01:34:03;1.90;63.60
52963;DHT22;38827;53.024;6.596;2023-04-03T01:36:36;1.90;63.50
52963;DHT22;38827;53.024;6.596;2023-04-03T01:39:25;1.90;63.70
52963;DHT22;38827;53.024;6.596;2023-04-03T01:42:07;1.80;63.80
52963;DHT22;38827;53.024;6.596;2023-04-03T01:44:43;1.80;64.10
52963;DHT22;38827;53.024;6.596;2023-04-03T01:47:17;1.80;64.00
52963;DHT22;38827;53.024;6.596;2023-04-03T01:49:55;1.80;64.30
52963;DHT22;38827;53.024;6.596;2023-04-03T01:52:24;1.80;64.40
52963;DHT22;38827;53.024;6.596;2023-04-03T01:54:57;1.70;64.60
52963;DHT22;38827;53.024;6.596;2023-04-03T01:57:27;1.70;64.90
52963;DHT22;38827;53.024;6.596;2023-04-03T01:59:52;1.70;64.90
52963;DHT22;38827;53.024;6.596;2023-04-03T02:02:18;1.60;65.00
52963;DHT22;38827;53.024;6.596;2023-04-03T02:04:45;1.60;65.30
52963;DHT22;38827;53.024;6.596;2023-04-03T02:07:15;1.60;65.50
52963;DHT22;38827;53.024;6.596;2023-04-03T02:09:41;1.60;65.60
52963;DHT22;38827;53.024;6.596;2023-04-03T02:12:07;1.50;65.80
52963;DHT22;38827;53.024;6.596;2023-04-03T02:14:32;1.50;65.80
52963;DHT22;38827;53.024;6.596;2023-04-03T02:17:00;1.50;66.00
52963;DHT22;38827;53.024;6.596;2023-04-03T02:19:26;1.50;66.20
52963;DHT22;38827;53.024;6.596;2023-04-03T02:21:51;1.40;66.30
52963;DHT22;38827;53.024;6.596;2023-04-03T02:24:20;1.50;66.40
52963;DHT22;38827;53.024;6.596;2023-04-03T02:26:46;1.40;66.60
52963;DHT22;38827;53.024;6.596;2023-04-03T02:29:13;1.40;66.80
52963;DHT22;38827;53.024;6.596;2023-04-03T02:31:38;1.40;66.90
52963;DHT22;38827;53.024;6.596;2023-04-03T02:34:15;1.40;66.90
52963;DHT22;38827;53.024;6.596;2023-04-03T02:36:43;1.40;67.20
52963;DHT22;38827;53.024;6.596;2023-04-03T02:39:09;1.40;67.20
52963;DHT22;38827;53.024;6.596;2023-04-03T02:41:35;1.40;67.30
52963;DHT22;38827;53.024;6.596;2023-04-03T02:44:02;1.40;67.40
52963;DHT22;38827;53.024;6.596;2023-04-03T02:46:28;1.40;67.40
52963;DHT22;38827;53.024;6.596;2023-04-03T02:48:53;1.40;67.50
52963;DHT22;38827;53.024;6.596;2023-04-03T02:51:19;1.40;67.50
52963;DHT22;38827;53.024;6.596;2023-04-03T02:53:45;1.40;67.80
52963;DHT22;38827;53.024;6.596;2023-04-03T02:56:11;1.40;68.00
52963;DHT22;38827;53.024;6.596;2023-04-03T02:58:36;1.30;68.00
52963;DHT22;38827;53.024;6.596;2023-04-03T03:01:02;1.30;68.10
52963;DHT22;38827;53.024;6.596;2023-04-03T03:03:28;1.30;68.30
52963;DHT22;38827;53.024;6.596;2023-04-03T03:06:06;1.30;68.30
52963;DHT22;38827;53.024;6.596;2023-04-03T03:08:33;1.30;68.40
52963;DHT22;38827;53.024;6.596;2023-04-03T03:10:59;1.20;68.50
52963;DHT22;38827;53.024;6.596;2023-04-03T03:13:24;1.20;68.60
52963;DHT22;38827;53.024;6.596;2023-04-03T03:15:51;1.20;68.60
52963;DHT22;38827;53.024;6.596;2023-04-03T03:18:17;1.10;68.70
52963;DHT22;38827;53.024;6.596;2023-04-03T03:20:43;1.10;68.80
52963;DHT22;38827;53.024;6.596;2023-04-03T03:23:08;1.10;68.80
52963;DHT22;38827;53.024;6.596;2023-04-03T03:25:40;1.10;69.10
52963;DHT22;38827;53.024;6.596;2023-04-03T03:28:06;1.00;69.20
52963;DHT22;38827;53.024;6.596;2023-04-03T03:30:32;1.00;69.20
52963;DHT22;38827;53.024;6.596;2023-04-03T03:32:58;1.00;69.30
52963;DHT22;38827;53.024;6.596;2023-04-03T03:35:24;1.00;69.40
52963;DHT22;38827;53.024;6.596;2023-04-03T03:37:49;0.90;69.60
52963;DHT22;38827;53.024;6.596;2023-04-03T03:40:15;0.90;70.00
52963;DHT22;38827;53.024;6.596;2023-04-03T03:42:41;0.80;70.10
52963;DHT22;38827;53.024;6.596;2023-04-03T03:45:07;0.80;70.10
52963;DHT22;38827;53.024;6.596;2023-04-03T03:47:33;0.80;70.40
52963;DHT22;38827;53.024;6.596;2023-04-03T03:49:59;0.80;70.60
52963;DHT22;38827;53.024;6.596;2023-04-03T03:52:24;0.70;70.60
52963;DHT22;38827;53.024;6.596;2023-04-03T03:54:50;0.70;70.50
52963;DHT22;38827;53.024;6.596;2023-04-03T03:57:16;0.70;70.50
52963;DHT22;38827;53.024;6.596;2023-04-03T03:59:42;0.70;70.50
52963;DHT22;38827;53.024;6.596;2023-04-03T04:02:09;0.60;70.70
52963;DHT22;38827;53.024;6.596;2023-04-03T04:04:36;0.60;70.70
52963;DHT22;38827;53.024;6.596;2023-04-03T04:07:02;0.60;70.70
52963;DHT22;38827;53.024;6.596;2023-04-03T04:09:27;0.60;70.90
52963;DHT22;38827;53.024;6.596;2023-04-03T04:11:53;0.60;70.80
52963;DHT22;38827;53.024;6.596;2023-04-03T04:14:19;0.50;71.10
52963;DHT22;38827;53.024;6.596;2023-04-03T04:16:48;0.50;71.10
52963;DHT22;38827;53.024;6.596;2023-04-03T04:19:14;0.50;71.30
52963;DHT22;38827;53.024;6.596;2023-04-03T04:21:40;0.50;71.30
52963;DHT22;38827;53.024;6.596;2023-04-03T04:24:12;0.40;71.40
52963;DHT22;38827;53.024;6.596;2023-04-03T04:26:38;0.40;71.60
52963;DHT22;38827;53.024;6.596;2023-04-03T04:29:04;0.40;71.70
52963;DHT22;38827;53.024;6.596;2023-04-03T04:31:29;0.30;71.80
52963;DHT22;38827;53.024;6.596;2023-04-03T04:33:57;0.30;71.80
52963;DHT22;38827;53.024;6.596;2023-04-03T04:36:23;0.30;71.80
52963;DHT22;38827;53.024;6.596;2023-04-03T04:38:49;0.30;72.00
52963;DHT22;38827;53.024;6.596;2023-04-03T04:41:19;0.30;72.00
52963;DHT22;38827;53.024;6.596;2023-04-03T04:43:48;0.30;72.00
52963;DHT22;38827;53.024;6.596;2023-04-03T04:46:13;0.30;72.20
52963;DHT22;38827;53.024;6.596;2023-04-03T04:48:39;0.30;72.30
52963;DHT22;38827;53.024;6.596;2023-04-03T04:51:06;0.30;72.30
52963;DHT22;38827;53.024;6.596;2023-04-03T04:53:32;0.30;72.40
52963;DHT22;38827;53.024;6.596;2023-04-03T04:55:58;0.30;72.40
52963;DHT22;38827;53.024;6.596;2023-04-03T04:58:24;0.30;72.50
52963;DHT22;38827;53.024;6.596;2023-04-03T05:01:01;0.30;72.50
52963;DHT22;38827;53.024;6.596;2023-04-03T05:03:27;0.30;72.70
52963;DHT22;38827;53.024;6.596;2023-04-03T05:05:52;0.30;72.70
52963;DHT22;38827;53.024;6.596;2023-04-03T05:08:18;0.30;72.80
52963;DHT22;38827;53.024;6.596;2023-04-03T05:10:45;0.30;72.60
52963;DHT22;38827;53.024;6.596;2023-04-03T05:13:11;0.30;72.90
52963;DHT22;38827;53.024;6.596;2023-04-03T05:15:37;0.30;72.90
52963;DHT22;38827;53.024;6.596;2023-04-03T05:18:02;0.20;72.90
52963;DHT22;38827;53.024;6.596;2023-04-03T05:20:28;0.30;73.00
52963;DHT22;38827;53.024;6.596;2023-04-03T05:22:54;0.30;73.00
52963;DHT22;38827;53.024;6.596;2023-04-03T05:25:20;0.30;73.10
52963;DHT22;38827;53.024;6.596;2023-04-03T05:27:46;0.30;73.30
52963;DHT22;38827;53.024;6.596;2023-04-03T05:30:11;0.30;73.20
52963;DHT22;38827;53.024;6.596;2023-04-03T05:32:37;0.30;73.20
52963;DHT22;38827;53.024;6.596;2023-04-03T05:35:09;0.40;73.30
52963;DHT22;38827;53.024;6.596;2023-04-03T05:37:40;0.40;73.30
52963;DHT22;38827;53.024;6.596;2023-04-03T05:40:07;0.40;73.20
52963;DHT22;38827;53.024;6.596;2023-04-03T05:42:33;0.50;73.30
52963;DHT22;38827;53.024;6.596;2023-04-03T05:44:58;0.50;73.20
52963;DHT22;38827;53.024;6.596;2023-04-03T05:47:24;0.60;73.20
52963;DHT22;38827;53.024;6.596;2023-04-03T05:49:50;0.60;73.20
52963;DHT22;38827;53.024;6.596;2023-04-03T05:52:30;0.60;73.10
52963;DHT22;38827;53.024;6.596;2023-04-03T05:54:57;0.70;73.10
52963;DHT22;38827;53.024;6.596;2023-04-03T05:57:23;0.70;73.10
52963;DHT22;38827;53.024;6.596;2023-04-03T05:59:48;0.80;73.10
52963;DHT22;38827;53.024;6.596;2023-04-03T06:02:19;0.90;73.00
52963;DHT22;38827;53.024;6.596;2023-04-03T06:04:52;0.90;72.90
52963;DHT22;38827;53.024;6.596;2023-04-03T06:07:21;1.00;72.90
52963;DHT22;38827;53.024;6.596;2023-04-03T06:09:49;1.10;72.60
52963;DHT22;38827;53.024;6.596;2023-04-03T06:12:15;1.10;72.60
52963;DHT22;38827;53.024;6.596;2023-04-03T06:14:40;1.20;73.10
52963;DHT22;38827;53.024;6.596;2023-04-03T06:17:07;1.20;72.50
52963;DHT22;38827;53.024;6.596;2023-04-03T06:19:33;1.30;72.20
52963;DHT22;38827;53.024;6.596;2023-04-03T06:21:59;1.40;72.10
52963;DHT22;38827;53.024;6.596;2023-04-03T06:24:28;1.50;71.90
52963;DHT22;38827;53.024;6.596;2023-04-03T06:26:54;1.60;71.60
52963;DHT22;38827;53.024;6.596;2023-04-03T06:29:20;1.60;71.60
52963;DHT22;38827;53.024;6.596;2023-04-03T06:31:46;1.70;71.30
52963;DHT22;38827;53.024;6.596;2023-04-03T06:34:12;1.80;71.20
52963;DHT22;38827;53.024;6.596;2023-04-03T06:36:39;1.90;71.10
52963;DHT22;38827;53.024;6.596;2023-04-03T06:39:05;2.00;70.80
52963;DHT22;38827;53.024;6.596;2023-04-03T06:41:31;2.10;70.90
52963;DHT22;38827;53.024;6.596;2023-04-03T06:43:57;2.20;70.50
52963;DHT22;38827;53.024;6.596;2023-04-03T06:46:24;2.30;70.00
52963;DHT22;38827;53.024;6.596;2023-04-03T06:48:50;2.40;69.90
52963;DHT22;38827;53.024;6.596;2023-04-03T06:51:36;2.50;69.50
52963;DHT22;38827;53.024;6.596;2023-04-03T06:54:17;2.60;69.00
52963;DHT22;38827;53.024;6.596;2023-04-03T06:57:21;2.70;68.80
52963;DHT22;38827;53.024;6.596;2023-04-03T07:00:23;2.80;68.60
52963;DHT22;38827;53.024;6.596;2023-04-03T07:03:03;3.00;68.30
52963;DHT22;38827;53.024;6.596;2023-04-03T07:05:30;3.10;67.80
52963;DHT22;38827;53.024;6.596;2023-04-03T07:07:56;3.30;67.40
52963;DHT22;38827;53.024;6.596;2023-04-03T07:10:30;3.40;66.50
52963;DHT22;38827;53.024;6.596;2023-04-03T07:12:57;3.50;66.20
52963;DHT22;38827;53.024;6.596;2023-04-03T07:15:35;3.60;65.60
52963;DHT22;38827;53.024;6.596;2023-04-03T07:18:02;3.70;65.30
52963;DHT22;38827;53.024;6.596;2023-04-03T07:20:29;3.80;65.20
52963;DHT22;38827;53.024;6.596;2023-04-03T07:22:54;4.00;64.90
52963;DHT22;38827;53.024;6.596;2023-04-03T07:25:22;4.10;64.90
52963;DHT22;38827;53.024;6.596;2023-04-03T07:27:57;4.40;64.20
52963;DHT22;38827;53.024;6.596;2023-04-03T07:30:27;4.70;63.80
52963;DHT22;38827;53.024;6.596;2023-04-03T07:36:52;5.60;60.60
52963;DHT22;38827;53.024;6.596;2023-04-03T07:39:25;6.20;59.60
52963;DHT22;38827;53.024;6.596;2023-04-03T07:42:03;6.70;58.60
52963;DHT22;38827;53.024;6.596;2023-04-03T07:44:34;7.20;57.10
52963;DHT22;38827;53.024;6.596;2023-04-03T07:47:15;7.60;56.20
52963;DHT22;38827;53.024;6.596;2023-04-03T07:50:03;8.20;55.10
52963;DHT22;38827;53.024;6.596;2023-04-03T07:52:33;8.80;53.40
52963;DHT22;38827;53.024;6.596;2023-04-03T07:55:27;9.30;52.00
52963;DHT22;38827;53.024;6.596;2023-04-03T07:58:01;9.90;50.20
52963;DHT22;38827;53.024;6.596;2023-04-03T08:00:47;10.40;49.90
52963;DHT22;38827;53.024;6.596;2023-04-03T08:03:33;11.10;48.60
52963;DHT22;38827;53.024;6.596;2023-04-03T08:06:28;11.70;46.60
52963;DHT22;38827;53.024;6.596;2023-04-03T08:08:59;12.20;45.60
52963;DHT22;38827;53.024;6.596;2023-04-03T08:11:39;12.70;44.80
52963;DHT22;38827;53.024;6.596;2023-04-03T08:14:14;13.00;43.20
52963;DHT22;38827;53.024;6.596;2023-04-03T08:16:54;13.10;42.40
52963;DHT22;38827;53.024;6.596;2023-04-03T08:19:22;13.40;42.40
52963;DHT22;38827;53.024;6.596;2023-04-03T08:22:04;13.50;40.90
52963;DHT22;38827;53.024;6.596;2023-04-03T08:24:36;13.50;39.90
52963;DHT22;38827;53.024;6.596;2023-04-03T08:27:10;13.70;40.30
52963;DHT22;38827;53.024;6.596;2023-04-03T08:29:36;14.20;39.50
52963;DHT22;38827;53.024;6.596;2023-04-03T08:32:05;14.40;37.90
52963;DHT22;38827;53.024;6.596;2023-04-03T08:34:31;14.50;37.70
52963;DHT22;38827;53.024;6.596;2023-04-03T08:37:00;14.60;37.30
52963;DHT22;38827;53.024;6.596;2023-04-03T08:39:27;14.80;36.70
52963;DHT22;38827;53.024;6.596;2023-04-03T08:41:57;14.90;36.70
52963;DHT22;38827;53.024;6.596;2023-04-03T08:44:48;15.20;36.30
52963;DHT22;38827;53.024;6.596;2023-04-03T08:49:55;15.70;35.20
52963;DHT22;38827;53.024;6.596;2023-04-03T08:52:53;15.90;35.00
52963;DHT22;38827;53.024;6.596;2023-04-03T08:55:40;16.20;33.10
52963;DHT22;38827;53.024;6.596;2023-04-03T08:58:31;16.50;33.50
52963;DHT22;38827;53.024;6.596;2023-04-03T09:01:00;16.80;33.80
52963;DHT22;38827;53.024;6.596;2023-04-03T09:03:37;17.10;33.70
52963;DHT22;38827;53.024;6.596;2023-04-03T09:06:22;17.40;32.90
52963;DHT22;38827;53.024;6.596;2023-04-03T09:09:06;17.70;31.20
52963;DHT22;38827;53.024;6.596;2023-04-03T09:12:12;17.80;32.30
52963;DHT22;38827;53.024;6.596;2023-04-03T09:22:50;19.40;29.80
52963;DHT22;38827;53.024;6.596;2023-04-03T09:25:31;19.70;31.30
52963;DHT22;38827;53.024;6.596;2023-04-03T09:28:00;19.60;28.20
52963;DHT22;38827;53.024;6.596;2023-04-03T09:30:27;19.50;30.90
52963;DHT22;38827;53.024;6.596;2023-04-03T09:32:56;19.50;29.30
52963;DHT22;38827;53.024;6.596;2023-04-03T09:37:56;19.40;30.10
52963;DHT22;38827;53.024;6.596;2023-04-03T09:42:57;19.80;29.30
52963;DHT22;38827;53.024;6.596;2023-04-03T09:45:34;20.10;28.80
52963;DHT22;38827;53.024;6.596;2023-04-03T09:51:00;20.60;27.70
52963;DHT22;38827;53.024;6.596;2023-04-03T09:53:37;20.60;26.60
52963;DHT22;38827;53.024;6.596;2023-04-03T09:56:20;20.50;26.70
52963;DHT22;38827;53.024;6.596;2023-04-03T10:01:36;20.80;27.80
52963;DHT22;38827;53.024;6.596;2023-04-03T10:06:32;20.60;27.00
52963;DHT22;38827;53.024;6.596;2023-04-03T10:09:27;20.50;27.00
52963;DHT22;38827;53.024;6.596;2023-04-03T10:14:32;20.60;26.00
52963;DHT22;38827;53.024;6.596;2023-04-03T10:20:05;20.80;25.30
52963;DHT22;38827;53.024;6.596;2023-04-03T10:25:48;20.80;23.50
52963;DHT22;38827;53.024;6.596;2023-04-03T10:28:22;20.90;24.00
52963;DHT22;38827;53.024;6.596;2023-04-03T10:31:13;20.80;24.20
52963;DHT22;38827;53.024;6.596;2023-04-03T10:34:04;20.70;23.90
52963;DHT22;38827;53.024;6.596;2023-04-03T10:47:24;21.90;23.00
52963;DHT22;38827;53.024;6.596;2023-04-03T10:49:56;21.80;23.00
52963;DHT22;38827;53.024;6.596;2023-04-03T10:58:04;22.10;22.80
52963;DHT22;38827;53.024;6.596;2023-04-03T11:03:23;22.10;23.10
52963;DHT22;38827;53.024;6.596;2023-04-03T11:05:53;22.30;23.20
52963;DHT22;38827;53.024;6.596;2023-04-03T11:08:28;22.40;23.10
52963;DHT22;38827;53.024;6.596;2023-04-03T11:11:26;22.70;23.10
52963;DHT22;38827;53.024;6.596;2023-04-03T11:14:01;22.80;23.10
52963;DHT22;38827;53.024;6.596;2023-04-03T11:16:31;22.80;23.30
52963;DHT22;38827;53.024;6.596;2023-04-03T11:19:05;22.70;23.10
52963;DHT22;38827;53.024;6.596;2023-04-03T11:21:44;22.70;22.90
52963;DHT22;38827;53.024;6.596;2023-04-03T11:24:20;22.90;22.80
52963;DHT22;38827;53.024;6.596;2023-04-03T11:26:49;22.90;22.30
52963;DHT22;38827;53.024;6.596;2023-04-03T11:29:23;22.80;22.70
52963;DHT22;38827;53.024;6.596;2023-04-03T11:32:01;22.80;22.90
52963;DHT22;38827;53.024;6.596;2023-04-03T11:37:05;23.10;22.60
52963;DHT22;38827;53.024;6.596;2023-04-03T11:39:37;23.00;22.70
52963;DHT22;38827;53.024;6.596;2023-04-03T11:42:45;22.90;22.30
52963;DHT22;38827;53.024;6.596;2023-04-03T11:47:53;22.40;22.90
52963;DHT22;38827;53.024;6.596;2023-04-03T11:53:01;22.50;22.40
52963;DHT22;38827;53.024;6.596;2023-04-03T12:13:38;22.30;22.80
52963;DHT22;38827;53.024;6.596;2023-04-03T12:16:06;22.30;23.00
52963;DHT22;38827;53.024;6.596;2023-04-03T12:21:17;22.70;23.30
52963;DHT22;38827;53.024;6.596;2023-04-03T12:34:55;23.00;22.70
52963;DHT22;38827;53.024;6.596;2023-04-03T12:43:05;23.00;22.50
52963;DHT22;38827;53.024;6.596;2023-04-03T12:46:04;23.10;22.40
52963;DHT22;38827;53.024;6.596;2023-04-03T12:48:32;23.10;22.70
52963;DHT22;38827;53.024;6.596;2023-04-03T12:50:59;23.10;22.10
52963;DHT22;38827;53.024;6.596;2023-04-03T12:53:28;22.90;22.00
52963;DHT22;38827;53.024;6.596;2023-04-03T12:59:27;22.80;22.00
52963;DHT22;38827;53.024;6.596;2023-04-03T13:02:00;22.60;22.00
52963;DHT22;38827;53.024;6.596;2023-04-03T13:04:31;22.30;22.10
52963;DHT22;38827;53.024;6.596;2023-04-03T13:06:57;22.40;22.60
52963;DHT22;38827;53.024;6.596;2023-04-03T13:09:28;22.40;22.40
52963;DHT22;38827;53.024;6.596;2023-04-03T13:12:12;22.50;22.50
52963;DHT22;38827;53.024;6.596;2023-04-03T13:14:38;22.40;22.30
52963;DHT22;38827;53.024;6.596;2023-04-03T13:17:12;22.20;22.80
52963;DHT22;38827;53.024;6.596;2023-04-03T13:19:39;22.40;22.80
52963;DHT22;38827;53.024;6.596;2023-04-03T13:22:11;22.50;22.50
52963;DHT22;38827;53.024;6.596;2023-04-03T13:24:43;22.80;22.40
52963;DHT22;38827;53.024;6.596;2023-04-03T13:27:11;22.90;22.60
52963;DHT22;38827;53.024;6.596;2023-04-03T13:29:38;22.90;22.00
52963;DHT22;38827;53.024;6.596;2023-04-03T13:32:05;22.80;22.50
52963;DHT22;38827;53.024;6.596;2023-04-03T13:34:42;23.20;22.30
52963;DHT22;38827;53.024;6.596;2023-04-03T13:37:29;23.60;22.50
52963;DHT22;38827;53.024;6.596;2023-04-03T13:42:36;23.80;21.80
52963;DHT22;38827;53.024;6.596;2023-04-03T13:45:23;23.70;21.70
52963;DHT22;38827;53.024;6.596;2023-04-03T13:47:53;23.20;21.60
52963;DHT22;38827;53.024;6.596;2023-04-03T13:50:26;22.70;22.20
52963;DHT22;38827;53.024;6.596;2023-04-03T13:53:23;22.60;22.30
52963;DHT22;38827;53.024;6.596;2023-04-03T13:55:57;22.70;21.80
52963;DHT22;38827;53.024;6.596;2023-04-03T13:58:28;22.60;22.10
52963;DHT22;38827;53.024;6.596;2023-04-03T14:00:56;22.80;22.10
52963;DHT22;38827;53.024;6.596;2023-04-03T14:03:39;22.80;22.10
52963;DHT22;38827;53.024;6.596;2023-04-03T14:06:10;22.90;21.90
52963;DHT22;38827;53.024;6.596;2023-04-03T14:08:36;22.80;22.00
52963;DHT22;38827;53.024;6.596;2023-04-03T14:11:02;22.80;21.90
52963;DHT22;38827;53.024;6.596;2023-04-03T14:13:30;22.70;22.00
52963;DHT22;38827;53.024;6.596;2023-04-03T14:16:02;22.80;21.80
52963;DHT22;38827;53.024;6.596;2023-04-03T14:18:28;23.00;22.20
52963;DHT22;38827;53.024;6.596;2023-04-03T14:20:53;23.30;22.10
52963;DHT22;38827;53.024;6.596;2023-04-03T14:23:19;23.10;22.20
52963;DHT22;38827;53.024;6.596;2023-04-03T14:25:45;22.80;22.20
52963;DHT22;38827;53.024;6.596;2023-04-03T14:28:29;22.70;22.60
52963;DHT22;38827;53.024;6.596;2023-04-03T14:30:57;22.60;22.00
52963;DHT22;38827;53.024;6.596;2023-04-03T14:33:23;22.60;22.10
52963;DHT22;38827;53.024;6.596;2023-04-03T14:35:50;22.70;22.40
52963;DHT22;38827;53.024;6.596;2023-04-03T14:40:47;22.60;22.00
52963;DHT22;38827;53.024;6.596;2023-04-03T14:43:21;22.10;22.30
52963;DHT22;38827;53.024;6.596;2023-04-03T14:45:48;21.80;22.00
52963;DHT22;38827;53.024;6.596;2023-04-03T14:48:27;21.40;22.00
52963;DHT22;38827;53.024;6.596;2023-04-03T14:50:53;21.20;21.80
52963;DHT22;38827;53.024;6.596;2023-04-03T14:53:20;21.00;22.30
52963;DHT22;38827;53.024;6.596;2023-04-03T14:55:50;21.00;22.40
52963;DHT22;38827;53.024;6.596;2023-04-03T14:58:18;20.90;22.80
52963;DHT22;38827;53.024;6.596;2023-04-03T15:00:45;20.90;22.70
52963;DHT22;38827;53.024;6.596;2023-04-03T15:03:19;20.60;22.60
52963;DHT22;38827;53.024;6.596;2023-04-03T15:05:46;20.60;22.90
52963;DHT22;38827;53.024;6.596;2023-04-03T15:08:17;20.90;23.20
52963;DHT22;38827;53.024;6.596;2023-04-03T15:10:44;20.70;23.30
52963;DHT22;38827;53.024;6.596;2023-04-03T15:13:12;20.50;23.40
52963;DHT22;38827;53.024;6.596;2023-04-03T15:15:37;20.60;23.60
52963;DHT22;38827;53.024;6.596;2023-04-03T15:18:14;20.70;23.30
52963;DHT22;38827;53.024;6.596;2023-04-03T15:20:42;20.70;23.70
52963;DHT22;38827;53.024;6.596;2023-04-03T15:23:11;20.60;23.70
52963;DHT22;38827;53.024;6.596;2023-04-03T15:25:36;20.40;23.50
52963;DHT22;38827;53.024;6.596;2023-04-03T15:28:02;20.40;23.50
52963;DHT22;38827;53.024;6.596;2023-04-03T15:30:28;20.20;23.50
52963;DHT22;38827;53.024;6.596;2023-04-03T15:32:53;19.90;23.20
52963;DHT22;38827;53.024;6.596;2023-04-03T15:35:19;19.50;23.50
52963;DHT22;38827;53.024;6.596;2023-04-03T15:37:45;19.10;23.70
52963;DHT22;38827;53.024;6.596;2023-04-03T15:40:11;18.90;23.80
52963;DHT22;38827;53.024;6.596;2023-04-03T15:42:36;18.60;24.20
52963;DHT22;38827;53.024;6.596;2023-04-03T15:45:02;18.40;24.30
52963;DHT22;38827;53.024;6.596;2023-04-03T15:47:29;18.00;24.30
52963;DHT22;38827;53.024;6.596;2023-04-03T15:49:55;17.70;24.40
52963;DHT22;38827;53.024;6.596;2023-04-03T15:52:21;17.60;24.80
52963;DHT22;38827;53.024;6.596;2023-04-03T15:54:46;17.70;25.00
52963;DHT22;38827;53.024;6.596;2023-04-03T15:57:12;17.60;25.30
52963;DHT22;38827;53.024;6.596;2023-04-03T15:59:38;17.40;25.20
52963;DHT22;38827;53.024;6.596;2023-04-03T16:02:05;17.10;25.40
52963;DHT22;38827;53.024;6.596;2023-04-03T16:04:32;16.90;25.80
52963;DHT22;38827;53.024;6.596;2023-04-03T16:07:02;16.70;26.00
52963;DHT22;38827;53.024;6.596;2023-04-03T16:09:28;16.40;26.50
52963;DHT22;38827;53.024;6.596;2023-04-03T16:11:54;16.10;26.80
52963;DHT22;38827;53.024;6.596;2023-04-03T16:14:20;15.80;26.80
52963;DHT22;38827;53.024;6.596;2023-04-03T16:16:45;15.40;27.40
52963;DHT22;38827;53.024;6.596;2023-04-03T16:19:11;14.90;28.20
52963;DHT22;38827;53.024;6.596;2023-04-03T16:21:38;14.40;28.10
52963;DHT22;38827;53.024;6.596;2023-04-03T16:24:06;14.00;28.50
52963;DHT22;38827;53.024;6.596;2023-04-03T16:26:34;13.50;29.00
52963;DHT22;38827;53.024;6.596;2023-04-03T16:29:00;13.10;29.70
52963;DHT22;38827;53.024;6.596;2023-04-03T16:31:26;12.80;29.70
52963;DHT22;38827;53.024;6.596;2023-04-03T16:33:52;12.60;29.80
52963;DHT22;38827;53.024;6.596;2023-04-03T16:36:18;12.40;29.90
52963;DHT22;38827;53.024;6.596;2023-04-03T16:38:44;12.20;30.50
52963;DHT22;38827;53.024;6.596;2023-04-03T16:41:09;12.00;30.30
52963;DHT22;38827;53.024;6.596;2023-04-03T16:43:35;11.80;30.30
52963;DHT22;38827;53.024;6.596;2023-04-03T16:46:02;11.70;30.60
52963;DHT22;38827;53.024;6.596;2023-04-03T16:48:29;11.60;31.40
52963;DHT22;38827;53.024;6.596;2023-04-03T16:50:57;11.40;31.60
52963;DHT22;38827;53.024;6.596;2023-04-03T16:53:24;11.40;31.90
52963;DHT22;38827;53.024;6.596;2023-04-03T16:55:50;11.30;32.00
52963;DHT22;38827;53.024;6.596;2023-04-03T16:58:16;11.10;32.00
52963;DHT22;38827;53.024;6.596;2023-04-03T17:00:42;10.90;32.10
52963;DHT22;38827;53.024;6.596;2023-04-03T17:03:08;10.80;32.50
52963;DHT22;38827;53.024;6.596;2023-04-03T17:05:34;10.60;32.80
52963;DHT22;38827;53.024;6.596;2023-04-03T17:08:01;10.50;33.20
52963;DHT22;38827;53.024;6.596;2023-04-03T17:10:30;10.40;33.20
52963;DHT22;38827;53.024;6.596;2023-04-03T17:12:56;10.20;33.50
52963;DHT22;38827;53.024;6.596;2023-04-03T17:15:22;10.20;33.70
52963;DHT22;38827;53.024;6.596;2023-04-03T17:17:51;10.10;34.30
52963;DHT22;38827;53.024;6.596;2023-04-03T17:23:42;9.90;35.60
52963;DHT22;38827;53.024;6.596;2023-04-03T17:26:09;9.80;34.50
52963;DHT22;38827;53.024;6.596;2023-04-03T17:28:35;9.70;34.90
52963;DHT22;38827;53.024;6.596;2023-04-03T17:31:01;9.60;35.10
52963;DHT22;38827;53.024;6.596;2023-04-03T17:33:28;9.50;35.10
52963;DHT22;38827;53.024;6.596;2023-04-03T17:35:56;9.30;35.30
52963;DHT22;38827;53.024;6.596;2023-04-03T17:38:22;9.10;35.50
52963;DHT22;38827;53.024;6.596;2023-04-03T17:40:48;9.00;35.80
52963;DHT22;38827;53.024;6.596;2023-04-03T17:43:13;8.90;36.20
52963;DHT22;38827;53.024;6.596;2023-04-03T17:45:40;8.90;36.30
52963;DHT22;38827;53.024;6.596;2023-04-03T17:48:06;8.80;36.80
52963;DHT22;38827;53.024;6.596;2023-04-03T17:50:33;8.70;37.30
52963;DHT22;38827;53.024;6.596;2023-04-03T17:53:05;8.70;37.30
52963;DHT22;38827;53.024;6.596;2023-04-03T17:55:49;8.60;37.70